createdAt,value
2023-02-27T00:00:14.239Z,100899.63
2023-02-27T00:02:42.559Z,100899.63
2023-02-27T00:05:11.056Z,100894.38
2023-02-27T00:07:39.272Z,100902.28
2023-02-27T00:10:09.583Z,100902.28
2023-02-27T00:12:38.843Z,100898.78
2023-02-27T00:15:07.869Z,100895.25
2023-02-27T00:17:35.423Z,100903.13
2023-02-27T00:20:03.097Z,100913.66
2023-02-27T00:22:30.603Z,100906.66
2023-02-27T00:24:58.174Z,100906.66
2023-02-27T00:27:27.057Z,100898.75
2023-02-27T00:29:54.540Z,100897.00
2023-02-27T00:32:22.123Z,100891.72
2023-02-27T00:34:49.625Z,100904.00
2023-02-27T00:37:17.175Z,100904.88
2023-02-27T00:39:44.621Z,100899.63
2023-02-27T00:42:12.121Z,100899.59
2023-02-27T00:44:41.281Z,100900.47
2023-02-27T00:47:09.021Z,100902.22
2023-02-27T00:49:36.493Z,100907.50
2023-02-27T00:52:03.980Z,100901.38
2023-02-27T00:54:31.419Z,100899.59
2023-02-27T00:56:58.864Z,100893.47
2023-02-27T00:59:26.292Z,100895.22
2023-02-27T01:01:55.111Z,100894.34
2023-02-27T01:04:22.583Z,100896.97
2023-02-27T01:06:50.156Z,100897.81
2023-02-27T01:09:17.642Z,100903.09
2023-02-27T01:11:45.404Z,100897.81
2023-02-27T01:14:13.230Z,100900.47
2023-02-27T01:16:40.774Z,100896.94
2023-02-27T01:19:09.788Z,100892.53
2023-02-27T01:21:37.278Z,100889.91
2023-02-27T01:24:05.092Z,100899.56
2023-02-27T01:26:32.582Z,100902.19
2023-02-27T01:29:00.260Z,100887.25
2023-02-27T01:31:28.118Z,100894.28
2023-02-27T01:33:55.827Z,100897.78
2023-02-27T01:36:24.889Z,100884.63
2023-02-27T01:38:52.348Z,100901.25
2023-02-27T01:41:19.806Z,100893.38
2023-02-27T01:43:58.651Z,100888.16
2023-02-27T01:46:27.024Z,100891.63
2023-02-27T01:48:59.545Z,100896.88
2023-02-27T01:51:32.813Z,100886.38
2023-02-27T01:54:01.113Z,100895.16
2023-02-27T01:56:32.188Z,100888.16
2023-02-27T01:59:03.804Z,100895.16
2023-02-27T02:01:33.253Z,100893.41
2023-02-27T02:04:06.778Z,100890.75
2023-02-27T02:06:40.808Z,100892.53
2023-02-27T02:09:10.636Z,100896.88
2023-02-27T02:11:39.878Z,100898.66
2023-02-27T02:14:10.631Z,100901.25
2023-02-27T02:17:07.560Z,100895.09
2023-02-27T02:19:57.082Z,100902.13
2023-02-27T02:23:00.671Z,100897.69
2023-02-27T02:25:53.763Z,100896.81
2023-02-27T02:28:40.815Z,100894.16
2023-02-27T02:31:35.096Z,100899.41
2023-02-27T02:34:31.933Z,100895.00
2023-02-27T02:37:48.736Z,100893.28
2023-02-27T02:40:28.736Z,100897.63
2023-02-27T02:43:06.948Z,100892.38
2023-02-27T02:45:42.432Z,100907.25
2023-02-27T02:48:14.194Z,100899.38
2023-02-27T02:50:49.337Z,100914.28
2023-02-27T02:53:36.148Z,100909.84
2023-02-27T02:56:11.904Z,100910.75
2023-02-27T02:58:47.760Z,100911.63
2023-02-27T03:01:17.783Z,100914.25
2023-02-27T03:03:50.958Z,100911.63
2023-02-27T03:06:23.145Z,100913.34
2023-02-27T03:08:56.505Z,100915.09
2023-02-27T03:11:29.252Z,100908.94
2023-02-27T03:14:03.189Z,100906.28
2023-02-27T03:16:34.368Z,100910.63
2023-02-27T03:19:08.978Z,100907.09
2023-02-27T03:21:39.819Z,100907.09
2023-02-27T03:24:11.200Z,100905.38
2023-02-27T03:26:44.621Z,100914.13
2023-02-27T03:29:15.561Z,100912.34
2023-02-27T03:31:47.611Z,100914.94
2023-02-27T03:34:20.098Z,100906.19
2023-02-27T03:36:55.238Z,100911.44
2023-02-27T03:39:31.108Z,100909.66
2023-02-27T03:42:10.276Z,100916.66
2023-02-27T03:44:51.554Z,100915.81
2023-02-27T03:47:20.693Z,100915.81
2023-02-27T03:49:50.969Z,100920.16
2023-02-27T03:52:19.338Z,100921.91
2023-02-27T03:54:54.108Z,100921.00
2023-02-27T03:57:23.512Z,100916.63
2023-02-27T03:59:51.216Z,100912.22
2023-02-27T04:02:18.778Z,100912.22
2023-02-27T04:04:46.401Z,100915.72
2023-02-27T04:07:25.529Z,100920.09
2023-02-27T04:10:20.368Z,100923.59
2023-02-27T04:13:24.441Z,100920.97
2023-02-27T04:16:06.574Z,100926.22
2023-02-27T04:18:52.140Z,100924.44
2023-02-27T04:21:27.946Z,100932.31
2023-02-27T04:24:03.076Z,100934.91
2023-02-27T04:26:34.191Z,100940.09
2023-02-27T04:29:08.754Z,100942.78
2023-02-27T04:31:46.221Z,100936.56
2023-02-27T04:34:21.587Z,100939.22
2023-02-27T04:36:54.808Z,100940.09
2023-02-27T04:39:27.504Z,100940.97
2023-02-27T04:41:59.104Z,100941.81
2023-02-27T04:44:29.702Z,100943.59
2023-02-27T04:46:59.345Z,100948.00
2023-02-27T04:49:30.620Z,100941.88
2023-02-27T04:52:02.232Z,100947.16
2023-02-27T04:54:34.818Z,100947.19
2023-02-27T04:57:08.766Z,100948.13
2023-02-27T04:59:41.345Z,100948.13
2023-02-27T05:02:14.670Z,100956.06
2023-02-27T05:04:45.347Z,100952.53
2023-02-27T05:07:19.822Z,100958.63
2023-02-27T05:09:52.005Z,100962.13
2023-02-27T05:12:26.270Z,100960.34
2023-02-27T05:14:59.964Z,100966.50
2023-02-27T05:17:32.729Z,100970.00
2023-02-27T05:20:00.987Z,100968.28
2023-02-27T05:22:37.393Z,100970.91
2023-02-27T05:25:11.859Z,100969.22
2023-02-27T05:27:42.997Z,100973.53
2023-02-27T05:30:21.020Z,100969.19
2023-02-27T05:32:54.335Z,100977.84
2023-02-27T05:35:29.406Z,100973.44
2023-02-27T05:38:04.116Z,100971.66
2023-02-27T05:40:35.134Z,100970.75
2023-02-27T05:43:07.474Z,100972.44
2023-02-27T05:45:40.192Z,100982.00
2023-02-27T05:48:12.452Z,100977.69
2023-02-27T05:50:41.629Z,100981.09
2023-02-27T05:53:11.993Z,100982.00
2023-02-27T05:55:43.426Z,100982.00
2023-02-27T05:58:17.695Z,100984.69
2023-02-27T06:00:51.223Z,100982.94
2023-02-27T06:03:19.033Z,100983.84
2023-02-27T06:05:47.906Z,100984.69
2023-02-27T06:08:15.355Z,100993.44
2023-02-27T06:10:42.801Z,100999.56
2023-02-27T06:13:10.253Z,101006.59
2023-02-27T06:15:37.714Z,101008.31
2023-02-27T06:18:06.629Z,101012.66
2023-02-27T06:20:34.074Z,101014.38
2023-02-27T06:23:01.514Z,101016.13
2023-02-27T06:25:29.105Z,101024.06
2023-02-27T06:27:56.533Z,101034.56
2023-02-27T06:30:24.007Z,101039.81
2023-02-27T06:32:51.765Z,101039.75
2023-02-27T06:35:20.813Z,101039.69
2023-02-27T06:37:48.315Z,101045.75
2023-02-27T06:40:16.418Z,101042.25
2023-02-27T06:42:45.080Z,101041.34
2023-02-27T06:45:14.788Z,101046.56
2023-02-27T06:47:43.096Z,101043.94
2023-02-27T06:50:13.455Z,101042.19
2023-02-27T06:52:42.328Z,101043.03
2023-02-27T06:55:11.204Z,101041.31
2023-02-27T06:57:38.828Z,101043.97
2023-02-27T07:00:08.212Z,101053.63
2023-02-27T07:02:35.708Z,101049.28
2023-02-27T07:05:07.929Z,101056.28
2023-02-27T07:07:38.319Z,101050.31
2023-02-27T07:10:12.088Z,101059.91
2023-02-27T07:12:39.689Z,101063.50
2023-02-27T07:15:08.490Z,101071.38
2023-02-27T07:17:35.957Z,101066.13
2023-02-27T07:20:04.036Z,101067.09
2023-02-27T07:22:31.563Z,101071.50
2023-02-27T07:24:59.047Z,101073.31
2023-02-27T07:27:27.918Z,101069.78
2023-02-27T07:29:58.137Z,101076.75
2023-02-27T07:32:25.793Z,101078.63
2023-02-27T07:34:53.296Z,101088.34
2023-02-27T07:37:20.746Z,101083.09
2023-02-27T07:39:48.184Z,101083.13
2023-02-27T07:42:15.620Z,101083.19
2023-02-27T07:44:44.391Z,101085.81
2023-02-27T07:47:12.545Z,101089.34
2023-02-27T07:49:39.980Z,101086.75
2023-02-27T07:52:08.225Z,101092.09
2023-02-27T07:54:37.449Z,101092.09
2023-02-27T07:57:05.012Z,101090.38
2023-02-27T07:59:32.799Z,101092.94
2023-02-27T08:02:01.602Z,101096.34
2023-02-27T08:04:29.102Z,101092.19
2023-02-27T08:06:57.275Z,101098.28
2023-02-27T08:09:24.750Z,101100.13
2023-02-27T08:11:52.196Z,101096.66
2023-02-27T08:14:19.637Z,101097.66
2023-02-27T08:16:47.105Z,101090.66
2023-02-27T08:19:16.194Z,101096.84
2023-02-27T08:21:43.793Z,101101.25
2023-02-27T08:24:11.598Z,101097.78
2023-02-27T08:26:39.049Z,101096.03
2023-02-27T08:29:06.514Z,101103.09
2023-02-27T08:31:34.492Z,101101.31
2023-02-27T08:34:09.938Z,101096.94
2023-02-27T08:36:39.783Z,101093.47
2023-02-27T08:39:08.411Z,101107.53
2023-02-27T08:41:36.122Z,101099.66
2023-02-27T08:44:04.096Z,101110.22
2023-02-27T08:46:31.620Z,101109.34
2023-02-27T08:48:59.210Z,101118.16
2023-02-27T08:51:27.120Z,101118.97
2023-02-27T08:53:58.844Z,101113.66
2023-02-27T08:56:27.143Z,101111.16
2023-02-27T08:58:55.016Z,101105.91
2023-02-27T09:01:22.780Z,101112.09
2023-02-27T09:03:50.335Z,101108.53
2023-02-27T09:06:17.822Z,101114.69
2023-02-27T09:08:45.410Z,101109.44
2023-02-27T09:11:14.219Z,101112.13
2023-02-27T09:13:41.701Z,101115.63
2023-02-27T09:16:10.106Z,101106.88
2023-02-27T09:18:37.859Z,101098.94
2023-02-27T09:21:05.502Z,101106.00
2023-02-27T09:23:33.007Z,101102.50
2023-02-27T09:26:00.505Z,101099.84
2023-02-27T09:28:29.303Z,101109.53
2023-02-27T09:30:57.283Z,101103.41
2023-02-27T09:33:29.112Z,101105.16
2023-02-27T09:35:56.785Z,101101.66
2023-02-27T09:38:24.240Z,101098.13
2023-02-27T09:40:54.975Z,101091.97
2023-02-27T09:43:26.180Z,101101.63
2023-02-27T09:45:57.509Z,101100.72
2023-02-27T09:48:31.081Z,101100.72
2023-02-27T09:50:59.953Z,101104.19
2023-02-27T09:53:31.808Z,101100.72
2023-02-27T09:56:08.884Z,101103.34
2023-02-27T09:58:44.485Z,101100.72
2023-02-27T10:01:19.987Z,101096.28
2023-02-27T10:04:13.803Z,101090.13
2023-02-27T10:06:44.772Z,101093.56
2023-02-27T10:09:33.916Z,101097.13
2023-02-27T10:12:13.726Z,101099.69
2023-02-27T10:14:44.296Z,101103.25
2023-02-27T10:17:20.993Z,101103.16
2023-02-27T10:19:50.134Z,101100.47
2023-02-27T10:22:24.455Z,101106.56
2023-02-27T10:24:57.012Z,101104.97
2023-02-27T10:27:24.527Z,101097.94
2023-02-27T10:29:54.158Z,101106.72
2023-02-27T10:32:25.772Z,101104.06
2023-02-27T10:35:00.860Z,101115.34
2023-02-27T10:37:30.302Z,101109.22
2023-02-27T10:40:01.112Z,101106.56
2023-02-27T10:42:32.943Z,101114.41
2023-02-27T10:45:00.518Z,101109.03
2023-02-27T10:47:29.663Z,101111.59
2023-02-27T10:50:00.206Z,101104.56
2023-02-27T10:52:27.758Z,101102.75
2023-02-27T10:54:55.280Z,101114.16
2023-02-27T10:57:30.274Z,101110.56
2023-02-27T11:00:00.610Z,101103.44
2023-02-27T11:02:35.047Z,101105.13
2023-02-27T11:05:03.322Z,101102.41
2023-02-27T11:07:34.507Z,101098.91
2023-02-27T11:10:17.119Z,101095.44
2023-02-27T11:12:59.141Z,101093.75
2023-02-27T11:15:28.396Z,101095.66
2023-02-27T11:18:25.551Z,101086.03
2023-02-27T11:20:53.150Z,101081.47
2023-02-27T11:23:22.348Z,101082.19
2023-02-27T11:25:50.938Z,101076.06
2023-02-27T11:28:24.316Z,101072.59
2023-02-27T11:31:00.576Z,101079.63
2023-02-27T11:33:32.669Z,101062.75
2023-02-27T11:36:01.397Z,101069.53
2023-02-27T11:38:31.216Z,101079.13
2023-02-27T11:41:02.075Z,101068.72
2023-02-27T11:43:32.680Z,101061.38
2023-02-27T11:46:13.991Z,101060.50
2023-02-27T11:48:53.797Z,101052.41
2023-02-27T11:51:33.959Z,101048.97
2023-02-27T11:54:13.837Z,101056.59
2023-02-27T11:56:45.237Z,101057.38
2023-02-27T11:59:28.250Z,101041.41
2023-02-27T12:02:02.633Z,101041.28
2023-02-27T12:04:42.371Z,101043.13
2023-02-27T12:07:16.711Z,101042.97
2023-02-27T12:09:51.246Z,101041.00
2023-02-27T12:12:25.073Z,101040.25
2023-02-27T12:15:03.052Z,101040.34
2023-02-27T12:17:35.955Z,101038.22
2023-02-27T12:20:23.243Z,101033.75
2023-02-27T12:22:53.710Z,101034.47
2023-02-27T12:25:35.669Z,101032.94
2023-02-27T12:28:09.661Z,101026.88
2023-02-27T12:30:42.986Z,101032.03
2023-02-27T12:33:21.732Z,101031.00
2023-02-27T12:35:58.297Z,101023.38
2023-02-27T12:38:25.801Z,101021.56
2023-02-27T12:41:04.965Z,101030.31
2023-02-27T12:43:44.454Z,101024.72
2023-02-27T12:46:28.996Z,101023.59
2023-02-27T12:49:16.667Z,101020.00
2023-02-27T12:51:55.252Z,101015.22
2023-02-27T12:54:33.938Z,101016.72
2023-02-27T12:57:22.527Z,101004.22
2023-02-27T13:00:06.340Z,101015.56
2023-02-27T13:02:46.664Z,101025.03
2023-02-27T13:05:32.841Z,101010.59
2023-02-27T13:08:25.808Z,101017.13
2023-02-27T13:11:00.445Z,101011.75
2023-02-27T13:13:32.360Z,101016.22
2023-02-27T13:16:05.632Z,101014.75
2023-02-27T13:18:39.812Z,101001.59
2023-02-27T13:21:13.586Z,101006.84
2023-02-27T13:23:55.536Z,101009.28
2023-02-27T13:26:27.979Z,101018.88
2023-02-27T13:28:56.386Z,101011.78
2023-02-27T13:31:35.093Z,101014.56
2023-02-27T13:34:15.378Z,101016.47
2023-02-27T13:36:46.899Z,101012.47
2023-02-27T13:39:42.341Z,101015.13
2023-02-27T13:42:43.007Z,101017.41
2023-02-27T13:45:43.730Z,101008.63
2023-02-27T13:48:40.924Z,101014.84
2023-02-27T13:51:41.786Z,101015.31
2023-02-27T13:54:30.142Z,101017.41
2023-02-27T13:57:18.794Z,101025.72
2023-02-27T13:59:54.349Z,101016.59
2023-02-27T14:02:33.997Z,101004.00
2023-02-27T14:05:06.179Z,101010.00
2023-02-27T14:07:47.954Z,100996.75
2023-02-27T14:10:22.957Z,101002.00
2023-02-27T14:12:52.913Z,101004.94
2023-02-27T14:15:53.627Z,101000.66
2023-02-27T14:18:56.519Z,100989.72
2023-02-27T14:22:03.484Z,100994.09
2023-02-27T14:24:41.359Z,100995.22
2023-02-27T14:27:20.060Z,101002.88
2023-02-27T14:29:51.506Z,100997.22
2023-02-27T14:32:22.773Z,100992.81
2023-02-27T14:34:51.892Z,100998.00
2023-02-27T14:37:23.510Z,100991.75
2023-02-27T14:39:52.475Z,100985.59
2023-02-27T14:42:38.554Z,100996.44
2023-02-27T14:45:14.730Z,100993.97
2023-02-27T14:47:42.712Z,100991.72
2023-02-27T14:50:24.697Z,100999.13
2023-02-27T14:52:52.190Z,100998.47
2023-02-27T14:55:27.701Z,100994.84
2023-02-27T14:57:57.328Z,100987.88
2023-02-27T15:00:39.140Z,100990.50
2023-02-27T15:03:17.426Z,101002.00
2023-02-27T15:05:45.387Z,100999.09
2023-02-27T15:08:18.086Z,100999.84
2023-02-27T15:10:45.769Z,100999.91
2023-02-27T15:13:24.660Z,101004.44
2023-02-27T15:16:21.710Z,101003.75
2023-02-27T15:18:50.854Z,101007.31
2023-02-27T15:21:20.889Z,101002.88
2023-02-27T15:23:55.208Z,100998.72
2023-02-27T15:26:22.950Z,100997.31
2023-02-27T15:28:50.652Z,101002.66
2023-02-27T15:31:22.553Z,101001.72
2023-02-27T15:33:51.337Z,101000.69
2023-02-27T15:36:25.089Z,100996.97
2023-02-27T15:39:06.732Z,100996.00
2023-02-27T15:41:34.988Z,100999.94
2023-02-27T15:44:03.336Z,100997.75
2023-02-27T15:46:33.539Z,100997.38
2023-02-27T15:49:01.187Z,101002.53
2023-02-27T15:51:29.761Z,101005.38
2023-02-27T15:54:01.200Z,101000.69
2023-02-27T15:56:33.491Z,101005.00
2023-02-27T15:59:02.117Z,100999.84
2023-02-27T16:01:34.832Z,101003.38
2023-02-27T16:04:05.979Z,101006.00
2023-02-27T16:06:35.905Z,101012.13
2023-02-27T16:09:07.389Z,101013.09
2023-02-27T16:11:37.412Z,101019.53
2023-02-27T16:14:05.857Z,101022.16
2023-02-27T16:16:36.173Z,101017.03
2023-02-27T16:19:16.458Z,101016.09
2023-02-27T16:22:06.445Z,101018.69
2023-02-27T16:24:34.889Z,101023.94
2023-02-27T16:27:02.771Z,101024.88
2023-02-27T16:29:35.091Z,101024.91
2023-02-27T16:32:05.053Z,101023.28
2023-02-27T16:34:45.253Z,101029.53
2023-02-27T16:37:20.145Z,101027.75
2023-02-27T16:39:47.822Z,101039.50
2023-02-27T16:42:15.297Z,101039.63
2023-02-27T16:44:42.768Z,101035.84
2023-02-27T16:47:11.692Z,101035.88
2023-02-27T16:49:40.295Z,101040.41
2023-02-27T16:52:09.540Z,101040.41
2023-02-27T16:54:37.677Z,101035.84
2023-02-27T16:57:05.488Z,101037.03
2023-02-27T16:59:36.006Z,101040.41
2023-02-27T17:02:06.101Z,101043.88
2023-02-27T17:04:36.098Z,101049.31
2023-02-27T17:07:06.487Z,101044.06
2023-02-27T17:09:35.185Z,101046.59
2023-02-27T17:12:02.694Z,101047.47
2023-02-27T17:14:30.246Z,101044.88
2023-02-27T17:17:00.480Z,101052.84
2023-02-27T17:19:27.996Z,101057.34
2023-02-27T17:21:57.005Z,101054.66
2023-02-27T17:24:24.498Z,101058.31
2023-02-27T17:26:52.636Z,101055.69
2023-02-27T17:29:20.199Z,101055.69
2023-02-27T17:31:47.909Z,101062.81
2023-02-27T17:34:16.050Z,101062.72
2023-02-27T17:36:44.222Z,101060.09
2023-02-27T17:39:14.820Z,101062.81
2023-02-27T17:41:43.447Z,101072.50
2023-02-27T17:44:12.039Z,101065.66
2023-02-27T17:46:40.392Z,101070.91
2023-02-27T17:49:09.454Z,101070.88
2023-02-27T17:51:37.082Z,101070.09
2023-02-27T17:54:06.732Z,101065.72
2023-02-27T17:56:36.907Z,101068.50
2023-02-27T17:59:04.644Z,101076.31
2023-02-27T18:01:32.234Z,101073.63
2023-02-27T18:03:59.700Z,101073.63
2023-02-27T18:06:27.672Z,101077.16
2023-02-27T18:08:55.522Z,101081.53
2023-02-27T18:11:23.525Z,101084.19
2023-02-27T18:13:52.312Z,101089.53
2023-02-27T18:16:21.812Z,101090.34
2023-02-27T18:18:49.830Z,101093.03
2023-02-27T18:21:20.878Z,101092.22
2023-02-27T18:23:49.241Z,101088.69
2023-02-27T18:26:28.923Z,101097.50
2023-02-27T18:29:00.056Z,101092.19
2023-02-27T18:31:30.088Z,101094.00
2023-02-27T18:33:57.737Z,101092.25
2023-02-27T18:36:25.353Z,101102.84
2023-02-27T18:38:52.872Z,101094.94
2023-02-27T18:41:20.373Z,101108.22
2023-02-27T18:43:47.853Z,101103.84
2023-02-27T18:46:16.954Z,101105.69
2023-02-27T18:48:45.696Z,101106.63
2023-02-27T18:51:15.322Z,101103.09
2023-02-27T18:53:45.813Z,101103.09
2023-02-27T18:56:15.117Z,101104.88
2023-02-27T18:58:42.877Z,101108.34
2023-02-27T19:01:20.803Z,101097.78
2023-02-27T19:03:48.328Z,101097.75
2023-02-27T19:06:15.839Z,101108.34
2023-02-27T19:08:43.381Z,101104.81
2023-02-27T19:11:10.880Z,101102.13
2023-02-27T19:13:38.356Z,101106.50
2023-02-27T19:16:06.608Z,101102.16
2023-02-27T19:18:35.443Z,101102.97
2023-02-27T19:21:04.237Z,101097.66
2023-02-27T19:23:31.906Z,101102.91
2023-02-27T19:25:59.688Z,101098.50
2023-02-27T19:28:27.295Z,101102.00
2023-02-27T19:30:54.802Z,101111.72
2023-02-27T19:33:22.424Z,101109.13
2023-02-27T19:35:51.452Z,101100.25
2023-02-27T19:38:19.013Z,101101.13
2023-02-27T19:40:46.534Z,101099.34
2023-02-27T19:43:15.207Z,101102.88
2023-02-27T19:45:42.893Z,101105.50
2023-02-27T19:48:11.911Z,101104.66
2023-02-27T19:50:40.992Z,101110.81
2023-02-27T19:53:09.807Z,101106.50
2023-02-27T19:55:37.603Z,101106.47
2023-02-27T19:58:05.127Z,101106.50
2023-02-27T20:00:32.661Z,101107.41
2023-02-27T20:03:00.283Z,101115.31
2023-02-27T20:05:27.863Z,101108.31
2023-02-27T20:07:55.354Z,101116.22
2023-02-27T20:10:24.269Z,101115.31
2023-02-27T20:12:51.731Z,101113.59
2023-02-27T20:15:19.493Z,101110.06
2023-02-27T20:17:46.991Z,101112.72
2023-02-27T20:20:15.052Z,101116.19
2023-02-27T20:22:44.590Z,101114.47
2023-02-27T20:25:13.640Z,101116.19
2023-02-27T20:27:42.493Z,101118.03
2023-02-27T20:30:11.796Z,101110.13
2023-02-27T20:32:39.264Z,101122.38
2023-02-27T20:35:08.003Z,101120.63
2023-02-27T20:37:35.665Z,101120.63
2023-02-27T20:40:04.155Z,101110.06
2023-02-27T20:42:31.597Z,101114.50
2023-02-27T20:45:00.400Z,101105.69
2023-02-27T20:47:28.054Z,101109.28
2023-02-27T20:49:55.516Z,101110.25
2023-02-27T20:52:22.964Z,101104.03
2023-02-27T20:54:50.418Z,101104.03
2023-02-27T20:57:17.956Z,101108.44
2023-02-27T20:59:45.494Z,101104.00
2023-02-27T21:02:14.276Z,101104.94
2023-02-27T21:04:47.041Z,101104.97
2023-02-27T21:07:15.931Z,101111.09
2023-02-27T21:09:43.570Z,101104.94
2023-02-27T21:12:11.519Z,101106.72
2023-02-27T21:14:38.992Z,101106.72
2023-02-27T21:17:06.983Z,101112.06
2023-02-27T21:19:36.719Z,101118.19
2023-02-27T21:22:04.430Z,101115.53
2023-02-27T21:24:32.363Z,101121.72
2023-02-27T21:27:00.333Z,101117.34
2023-02-27T21:29:27.772Z,101112.94
2023-02-27T21:31:55.278Z,101117.38
2023-02-27T21:34:26.024Z,101115.59
2023-02-27T21:36:55.515Z,101116.50
2023-02-27T21:39:25.616Z,101127.03
2023-02-27T21:41:53.778Z,101118.25
2023-02-27T21:44:24.847Z,101129.72
2023-02-27T21:46:52.859Z,101126.16
2023-02-27T21:49:22.528Z,101128.84
2023-02-27T21:51:50.405Z,101127.97
2023-02-27T21:54:20.277Z,101132.38
2023-02-27T21:56:49.683Z,101132.38
2023-02-27T21:59:18.778Z,101130.59
2023-02-27T22:01:48.025Z,101131.53
2023-02-27T22:04:16.964Z,101128.88
2023-02-27T22:06:44.745Z,101133.25
2023-02-27T22:09:12.420Z,101127.13
2023-02-27T22:11:41.808Z,101119.22
2023-02-27T22:14:10.815Z,101132.38
2023-02-27T22:16:38.369Z,101124.50
2023-02-27T22:19:07.526Z,101129.78
2023-02-27T22:21:36.094Z,101135.03
2023-02-27T22:24:03.559Z,101129.75
2023-02-27T22:26:32.478Z,101128.00
2023-02-27T22:29:01.368Z,101129.75
2023-02-27T22:31:31.831Z,101131.53
2023-02-27T22:34:02.099Z,101133.28
2023-02-27T22:36:31.990Z,101125.34
2023-02-27T22:38:59.896Z,101131.53
2023-02-27T22:41:29.526Z,101136.78
2023-02-27T22:43:57.407Z,101130.63
2023-02-27T22:46:28.515Z,101137.66
2023-02-27T22:48:56.856Z,101131.50
2023-02-27T22:51:27.626Z,101135.91
2023-02-27T22:53:56.743Z,101125.34
2023-02-27T22:56:24.847Z,101137.66
2023-02-27T22:58:52.609Z,101135.88
2023-02-27T23:01:21.607Z,101134.16
2023-02-27T23:03:52.419Z,101138.50
2023-02-27T23:06:22.133Z,101143.78
2023-02-27T23:08:49.969Z,101145.53
2023-02-27T23:11:19.905Z,101146.41
2023-02-27T23:13:47.791Z,101149.94
2023-02-27T23:16:15.637Z,101149.03
2023-02-27T23:18:45.903Z,101153.44
2023-02-27T23:21:16.155Z,101156.06
2023-02-27T23:23:44.244Z,101158.72
2023-02-27T23:26:12.345Z,101152.56
2023-02-27T23:28:40.046Z,101154.31
2023-02-27T23:31:08.501Z,101156.97
2023-02-27T23:33:36.522Z,101159.59
2023-02-27T23:36:04.970Z,101162.25
2023-02-27T23:38:33.814Z,101161.38
2023-02-27T23:41:06.238Z,101168.44
2023-02-27T23:43:33.932Z,101164.03
2023-02-27T23:46:06.908Z,101169.31
2023-02-27T23:48:34.897Z,101166.69
2023-02-27T23:51:03.119Z,101172.81
2023-02-27T23:53:30.927Z,101169.28
2023-02-27T23:55:59.749Z,101170.16
2023-02-27T23:58:27.231Z,101162.25
